sensor_id;sensor_type;location;lat;lon;timestamp;P1;durP1;ratioP1;P2;durP2;ratioP2
11771;SDS011;12556;55.748;13.194;2023-08-06T00:00:55;3.40;;;2.47;;
11771;SDS011;12556;55.748;13.194;2023-08-06T00:03:22;4.37;;;2.63;;
11771;SDS011;12556;55.748;13.194;2023-08-06T00:05:50;6.67;;;3.27;;
11771;SDS011;12556;55.748;13.194;2023-08-06T00:08:17;3.53;;;3.03;;
11771;SDS011;12556;55.748;13.194;2023-08-06T00:10:43;5.10;;;2.67;;
11771;SDS011;12556;55.748;13.194;2023-08-06T00:13:10;4.30;;;2.63;;
11771;SDS011;12556;55.748;13.194;2023-08-06T00:15:37;3.67;;;2.67;;
11771;SDS011;12556;55.748;13.194;2023-08-06T00:18:04;5.47;;;3.37;;
11771;SDS011;12556;55.748;13.194;2023-08-06T00:20:31;3.70;;;3.20;;
11771;SDS011;12556;55.748;13.194;2023-08-06T00:22:59;6.17;;;3.00;;
11771;SDS011;12556;55.748;13.194;2023-08-06T00:25:26;7.93;;;3.03;;
11771;SDS011;12556;55.748;13.194;2023-08-06T00:27:53;8.83;;;2.70;;
11771;SDS011;12556;55.748;13.194;2023-08-06T00:30:21;6.03;;;3.33;;
11771;SDS011;12556;55.748;13.194;2023-08-06T00:32:48;5.70;;;2.60;;
11771;SDS011;12556;55.748;13.194;2023-08-06T00:35:15;3.17;;;2.70;;
11771;SDS011;12556;55.748;13.194;2023-08-06T00:37:42;4.10;;;2.87;;
11771;SDS011;12556;55.748;13.194;2023-08-06T00:40:10;6.70;;;3.03;;
11771;SDS011;12556;55.748;13.194;2023-08-06T00:42:37;2.93;;;2.70;;
11771;SDS011;12556;55.748;13.194;2023-08-06T00:45:04;3.30;;;2.97;;
11771;SDS011;12556;55.748;13.194;2023-08-06T00:47:31;4.10;;;2.67;;
11771;SDS011;12556;55.748;13.194;2023-08-06T00:49:58;4.67;;;2.80;;
11771;SDS011;12556;55.748;13.194;2023-08-06T00:52:25;3.83;;;2.80;;
11771;SDS011;12556;55.748;13.194;2023-08-06T00:54:52;4.00;;;2.87;;
11771;SDS011;12556;55.748;13.194;2023-08-06T00:57:20;3.60;;;2.53;;
11771;SDS011;12556;55.748;13.194;2023-08-06T00:59:50;4.23;;;3.10;;
11771;SDS011;12556;55.748;13.194;2023-08-06T01:02:18;4.03;;;3.07;;
11771;SDS011;12556;55.748;13.194;2023-08-06T01:04:44;2.93;;;2.60;;
11771;SDS011;12556;55.748;13.194;2023-08-06T01:07:13;5.30;;;2.90;;
11771;SDS011;12556;55.748;13.194;2023-08-06T01:09:50;7.10;;;3.13;;
11771;SDS011;12556;55.748;13.194;2023-08-06T01:12:30;4.07;;;2.90;;
11771;SDS011;12556;55.748;13.194;2023-08-06T01:15:14;4.40;;;3.00;;
11771;SDS011;12556;55.748;13.194;2023-08-06T01:17:45;4.67;;;2.80;;
11771;SDS011;12556;55.748;13.194;2023-08-06T01:20:12;4.10;;;3.03;;
11771;SDS011;12556;55.748;13.194;2023-08-06T01:22:40;3.47;;;3.17;;
11771;SDS011;12556;55.748;13.194;2023-08-06T01:25:07;8.50;;;4.07;;
11771;SDS011;12556;55.748;13.194;2023-08-06T01:27:37;3.97;;;3.30;;
11771;SDS011;12556;55.748;13.194;2023-08-06T01:30:11;8.37;;;4.07;;
11771;SDS011;12556;55.748;13.194;2023-08-06T01:32:42;5.80;;;4.40;;
11771;SDS011;12556;55.748;13.194;2023-08-06T01:35:11;5.20;;;4.07;;
11771;SDS011;12556;55.748;13.194;2023-08-06T01:37:41;5.13;;;3.63;;
11771;SDS011;12556;55.748;13.194;2023-08-06T01:40:09;6.57;;;4.27;;
11771;SDS011;12556;55.748;13.194;2023-08-06T01:42:37;11.90;;;4.30;;
11771;SDS011;12556;55.748;13.194;2023-08-06T01:45:04;6.30;;;3.70;;
11771;SDS011;12556;55.748;13.194;2023-08-06T01:47:32;4.60;;;3.60;;
11771;SDS011;12556;55.748;13.194;2023-08-06T01:49:59;7.33;;;3.70;;
11771;SDS011;12556;55.748;13.194;2023-08-06T01:52:26;8.87;;;4.27;;
11771;SDS011;12556;55.748;13.194;2023-08-06T01:54:54;6.43;;;4.67;;
11771;SDS011;12556;55.748;13.194;2023-08-06T01:57:21;6.47;;;4.37;;
11771;SDS011;12556;55.748;13.194;2023-08-06T01:59:48;8.83;;;5.17;;
11771;SDS011;12556;55.748;13.194;2023-08-06T02:02:15;6.27;;;5.00;;
11771;SDS011;12556;55.748;13.194;2023-08-06T02:04:42;6.10;;;5.50;;
11771;SDS011;12556;55.748;13.194;2023-08-06T02:07:09;7.67;;;5.50;;
11771;SDS011;12556;55.748;13.194;2023-08-06T02:09:36;5.07;;;4.57;;
11771;SDS011;12556;55.748;13.194;2023-08-06T02:12:04;5.53;;;5.00;;
11771;SDS011;12556;55.748;13.194;2023-08-06T02:14:32;6.87;;;5.27;;
11771;SDS011;12556;55.748;13.194;2023-08-06T02:16:59;11.00;;;5.30;;
11771;SDS011;12556;55.748;13.194;2023-08-06T02:19:26;8.07;;;5.50;;
11771;SDS011;12556;55.748;13.194;2023-08-06T02:21:54;7.77;;;4.80;;
11771;SDS011;12556;55.748;13.194;2023-08-06T02:24:21;7.10;;;5.00;;
11771;SDS011;12556;55.748;13.194;2023-08-06T02:26:48;5.37;;;4.80;;
11771;SDS011;12556;55.748;13.194;2023-08-06T02:29:17;6.67;;;5.60;;
11771;SDS011;12556;55.748;13.194;2023-08-06T02:31:44;10.83;;;5.13;;
11771;SDS011;12556;55.748;13.194;2023-08-06T02:34:11;5.90;;;4.90;;
11771;SDS011;12556;55.748;13.194;2023-08-06T02:36:38;6.90;;;4.83;;
11771;SDS011;12556;55.748;13.194;2023-08-06T02:39:05;4.90;;;4.40;;
11771;SDS011;12556;55.748;13.194;2023-08-06T02:41:31;6.30;;;4.70;;
11771;SDS011;12556;55.748;13.194;2023-08-06T02:43:58;5.10;;;4.60;;
11771;SDS011;12556;55.748;13.194;2023-08-06T02:46:26;7.53;;;5.53;;
11771;SDS011;12556;55.748;13.194;2023-08-06T02:48:53;12.50;;;5.97;;
11771;SDS011;12556;55.748;13.194;2023-08-06T02:51:20;7.60;;;4.97;;
11771;SDS011;12556;55.748;13.194;2023-08-06T02:53:47;9.10;;;5.87;;
11771;SDS011;12556;55.748;13.194;2023-08-06T02:56:14;7.47;;;6.10;;
11771;SDS011;12556;55.748;13.194;2023-08-06T02:58:41;8.70;;;6.13;;
11771;SDS011;12556;55.748;13.194;2023-08-06T03:01:08;5.73;;;5.07;;
11771;SDS011;12556;55.748;13.194;2023-08-06T03:03:36;11.40;;;6.73;;
11771;SDS011;12556;55.748;13.194;2023-08-06T03:06:03;8.10;;;6.23;;
11771;SDS011;12556;55.748;13.194;2023-08-06T03:08:30;6.60;;;5.87;;
11771;SDS011;12556;55.748;13.194;2023-08-06T03:10:57;7.83;;;5.90;;
11771;SDS011;12556;55.748;13.194;2023-08-06T03:13:24;6.67;;;5.57;;
11771;SDS011;12556;55.748;13.194;2023-08-06T03:15:54;10.43;;;5.77;;
11771;SDS011;12556;55.748;13.194;2023-08-06T03:18:22;10.97;;;5.77;;
11771;SDS011;12556;55.748;13.194;2023-08-06T03:20:50;6.13;;;5.53;;
11771;SDS011;12556;55.748;13.194;2023-08-06T03:23:17;6.90;;;5.93;;
11771;SDS011;12556;55.748;13.194;2023-08-06T03:25:44;6.03;;;5.30;;
11771;SDS011;12556;55.748;13.194;2023-08-06T03:28:11;7.37;;;5.60;;
11771;SDS011;12556;55.748;13.194;2023-08-06T03:30:38;6.57;;;5.27;;
11771;SDS011;12556;55.748;13.194;2023-08-06T03:33:05;8.27;;;5.67;;
11771;SDS011;12556;55.748;13.194;2023-08-06T03:35:32;8.43;;;5.23;;
11771;SDS011;12556;55.748;13.194;2023-08-06T03:38:00;7.50;;;5.53;;
11771;SDS011;12556;55.748;13.194;2023-08-06T03:40:27;5.77;;;5.17;;
11771;SDS011;12556;55.748;13.194;2023-08-06T03:42:54;6.30;;;5.20;;
11771;SDS011;12556;55.748;13.194;2023-08-06T03:45:21;5.67;;;4.50;;
11771;SDS011;12556;55.748;13.194;2023-08-06T03:47:48;6.23;;;5.17;;
11771;SDS011;12556;55.748;13.194;2023-08-06T03:50:14;6.70;;;5.60;;
11771;SDS011;12556;55.748;13.194;2023-08-06T03:52:41;10.13;;;5.07;;
11771;SDS011;12556;55.748;13.194;2023-08-06T03:55:10;8.47;;;5.67;;
11771;SDS011;12556;55.748;13.194;2023-08-06T03:57:36;9.10;;;5.07;;
11771;SDS011;12556;55.748;13.194;2023-08-06T04:00:04;6.23;;;5.47;;
11771;SDS011;12556;55.748;13.194;2023-08-06T04:02:32;8.87;;;5.40;;
11771;SDS011;12556;55.748;13.194;2023-08-06T04:04:58;5.60;;;4.77;;
11771;SDS011;12556;55.748;13.194;2023-08-06T04:07:26;7.67;;;5.07;;
11771;SDS011;12556;55.748;13.194;2023-08-06T04:09:53;5.77;;;5.13;;
11771;SDS011;12556;55.748;13.194;2023-08-06T04:12:23;8.37;;;5.33;;
11771;SDS011;12556;55.748;13.194;2023-08-06T04:14:50;4.93;;;4.23;;
11771;SDS011;12556;55.748;13.194;2023-08-06T04:17:17;6.20;;;5.50;;
11771;SDS011;12556;55.748;13.194;2023-08-06T04:19:46;6.13;;;5.00;;
11771;SDS011;12556;55.748;13.194;2023-08-06T04:22:14;6.07;;;4.80;;
11771;SDS011;12556;55.748;13.194;2023-08-06T04:24:41;5.60;;;5.07;;
11771;SDS011;12556;55.748;13.194;2023-08-06T04:27:08;9.90;;;4.63;;
11771;SDS011;12556;55.748;13.194;2023-08-06T04:29:37;5.50;;;4.63;;
11771;SDS011;12556;55.748;13.194;2023-08-06T04:32:05;7.07;;;4.40;;
11771;SDS011;12556;55.748;13.194;2023-08-06T04:34:34;6.87;;;4.93;;
11771;SDS011;12556;55.748;13.194;2023-08-06T04:37:02;6.63;;;4.47;;
11771;SDS011;12556;55.748;13.194;2023-08-06T04:39:29;9.07;;;4.60;;
11771;SDS011;12556;55.748;13.194;2023-08-06T04:41:56;8.77;;;4.90;;
11771;SDS011;12556;55.748;13.194;2023-08-06T04:44:23;5.73;;;4.27;;
11771;SDS011;12556;55.748;13.194;2023-08-06T04:46:52;5.17;;;4.10;;
11771;SDS011;12556;55.748;13.194;2023-08-06T04:49:19;6.13;;;4.60;;
11771;SDS011;12556;55.748;13.194;2023-08-06T04:51:46;9.40;;;4.30;;
11771;SDS011;12556;55.748;13.194;2023-08-06T04:54:13;5.53;;;4.33;;
11771;SDS011;12556;55.748;13.194;2023-08-06T04:56:40;5.17;;;3.90;;
11771;SDS011;12556;55.748;13.194;2023-08-06T04:59:07;5.27;;;4.20;;
11771;SDS011;12556;55.748;13.194;2023-08-06T05:01:34;5.97;;;4.30;;
11771;SDS011;12556;55.748;13.194;2023-08-06T05:04:02;6.47;;;4.10;;
11771;SDS011;12556;55.748;13.194;2023-08-06T05:06:29;5.07;;;3.70;;
11771;SDS011;12556;55.748;13.194;2023-08-06T05:08:56;8.80;;;3.90;;
11771;SDS011;12556;55.748;13.194;2023-08-06T05:11:23;8.27;;;3.40;;
11771;SDS011;12556;55.748;13.194;2023-08-06T05:13:50;10.67;;;3.77;;
11771;SDS011;12556;55.748;13.194;2023-08-06T05:16:17;4.80;;;4.00;;
11771;SDS011;12556;55.748;13.194;2023-08-06T05:18:44;6.43;;;3.77;;
11771;SDS011;12556;55.748;13.194;2023-08-06T05:21:12;5.43;;;4.00;;
11771;SDS011;12556;55.748;13.194;2023-08-06T05:23:39;6.90;;;3.80;;
11771;SDS011;12556;55.748;13.194;2023-08-06T05:26:06;5.53;;;3.40;;
11771;SDS011;12556;55.748;13.194;2023-08-06T05:28:33;5.83;;;3.60;;
11771;SDS011;12556;55.748;13.194;2023-08-06T05:31:02;7.20;;;3.93;;
11771;SDS011;12556;55.748;13.194;2023-08-06T05:33:30;5.30;;;3.67;;
11771;SDS011;12556;55.748;13.194;2023-08-06T05:35:56;4.80;;;4.23;;
11771;SDS011;12556;55.748;13.194;2023-08-06T05:38:25;5.33;;;4.50;;
11771;SDS011;12556;55.748;13.194;2023-08-06T05:40:51;5.83;;;4.37;;
11771;SDS011;12556;55.748;13.194;2023-08-06T05:43:18;5.53;;;4.70;;
11771;SDS011;12556;55.748;13.194;2023-08-06T05:45:45;5.33;;;4.23;;
11771;SDS011;12556;55.748;13.194;2023-08-06T05:48:12;5.43;;;4.37;;
11771;SDS011;12556;55.748;13.194;2023-08-06T05:50:39;4.90;;;4.30;;
11771;SDS011;12556;55.748;13.194;2023-08-06T05:53:06;5.53;;;3.40;;
11771;SDS011;12556;55.748;13.194;2023-08-06T05:55:35;3.93;;;3.53;;
11771;SDS011;12556;55.748;13.194;2023-08-06T05:58:01;4.43;;;3.70;;
11771;SDS011;12556;55.748;13.194;2023-08-06T06:00:28;4.93;;;3.53;;
11771;SDS011;12556;55.748;13.194;2023-08-06T06:02:55;5.10;;;4.30;;
11771;SDS011;12556;55.748;13.194;2023-08-06T06:05:22;10.53;;;4.10;;
11771;SDS011;12556;55.748;13.194;2023-08-06T06:07:49;3.90;;;3.60;;
11771;SDS011;12556;55.748;13.194;2023-08-06T06:10:16;4.00;;;3.33;;
11771;SDS011;12556;55.748;13.194;2023-08-06T06:12:44;5.37;;;3.67;;
11771;SDS011;12556;55.748;13.194;2023-08-06T06:15:11;3.97;;;3.50;;
11771;SDS011;12556;55.748;13.194;2023-08-06T06:17:37;4.47;;;3.10;;
11771;SDS011;12556;55.748;13.194;2023-08-06T06:20:05;4.77;;;3.17;;
11771;SDS011;12556;55.748;13.194;2023-08-06T06:22:32;3.00;;;2.70;;
11771;SDS011;12556;55.748;13.194;2023-08-06T06:24:59;2.80;;;2.50;;
11771;SDS011;12556;55.748;13.194;2023-08-06T06:27:26;3.00;;;2.70;;
11771;SDS011;12556;55.748;13.194;2023-08-06T06:29:54;2.83;;;2.63;;
11771;SDS011;12556;55.748;13.194;2023-08-06T06:32:21;4.10;;;2.67;;
11771;SDS011;12556;55.748;13.194;2023-08-06T06:34:48;4.63;;;2.50;;
11771;SDS011;12556;55.748;13.194;2023-08-06T06:37:15;3.50;;;2.93;;
11771;SDS011;12556;55.748;13.194;2023-08-06T06:39:42;4.77;;;2.53;;
11771;SDS011;12556;55.748;13.194;2023-08-06T06:42:10;4.23;;;2.53;;
11771;SDS011;12556;55.748;13.194;2023-08-06T06:44:36;4.93;;;2.80;;
11771;SDS011;12556;55.748;13.194;2023-08-06T06:47:05;5.13;;;2.57;;
11771;SDS011;12556;55.748;13.194;2023-08-06T06:49:32;3.93;;;2.23;;
11771;SDS011;12556;55.748;13.194;2023-08-06T06:51:58;4.23;;;2.50;;
11771;SDS011;12556;55.748;13.194;2023-08-06T06:54:25;7.00;;;2.67;;
11771;SDS011;12556;55.748;13.194;2023-08-06T06:56:52;4.80;;;2.30;;
11771;SDS011;12556;55.748;13.194;2023-08-06T06:59:19;5.33;;;2.53;;
11771;SDS011;12556;55.748;13.194;2023-08-06T07:01:46;3.77;;;1.83;;
11771;SDS011;12556;55.748;13.194;2023-08-06T07:04:14;2.30;;;2.03;;
11771;SDS011;12556;55.748;13.194;2023-08-06T07:06:41;6.03;;;2.70;;
11771;SDS011;12556;55.748;13.194;2023-08-06T07:09:08;2.50;;;2.10;;
11771;SDS011;12556;55.748;13.194;2023-08-06T07:11:35;2.77;;;2.07;;
11771;SDS011;12556;55.748;13.194;2023-08-06T07:14:02;2.60;;;2.07;;
11771;SDS011;12556;55.748;13.194;2023-08-06T07:16:28;4.00;;;2.20;;
11771;SDS011;12556;55.748;13.194;2023-08-06T07:18:55;2.40;;;2.17;;
11771;SDS011;12556;55.748;13.194;2023-08-06T07:21:23;2.47;;;1.90;;
11771;SDS011;12556;55.748;13.194;2023-08-06T07:23:50;4.13;;;1.97;;
11771;SDS011;12556;55.748;13.194;2023-08-06T07:26:19;3.10;;;2.17;;
11771;SDS011;12556;55.748;13.194;2023-08-06T07:28:46;3.10;;;2.23;;
11771;SDS011;12556;55.748;13.194;2023-08-06T07:31:13;4.47;;;1.90;;
11771;SDS011;12556;55.748;13.194;2023-08-06T07:33:40;3.90;;;2.00;;
11771;SDS011;12556;55.748;13.194;2023-08-06T07:36:07;2.37;;;1.87;;
11771;SDS011;12556;55.748;13.194;2023-08-06T07:38:36;2.57;;;2.00;;
11771;SDS011;12556;55.748;13.194;2023-08-06T07:41:03;4.43;;;2.10;;
11771;SDS011;12556;55.748;13.194;2023-08-06T07:43:31;2.83;;;2.27;;
11771;SDS011;12556;55.748;13.194;2023-08-06T07:45:58;5.07;;;2.17;;
11771;SDS011;12556;55.748;13.194;2023-08-06T07:48:25;3.87;;;2.00;;
11771;SDS011;12556;55.748;13.194;2023-08-06T07:50:53;3.67;;;2.17;;
11771;SDS011;12556;55.748;13.194;2023-08-06T07:53:20;4.37;;;2.07;;
11771;SDS011;12556;55.748;13.194;2023-08-06T07:55:51;3.70;;;2.17;;
11771;SDS011;12556;55.748;13.194;2023-08-06T07:58:18;2.77;;;2.40;;
11771;SDS011;12556;55.748;13.194;2023-08-06T08:00:46;2.37;;;2.00;;
11771;SDS011;12556;55.748;13.194;2023-08-06T08:03:13;2.83;;;2.37;;
11771;SDS011;12556;55.748;13.194;2023-08-06T08:05:41;3.63;;;2.30;;
11771;SDS011;12556;55.748;13.194;2023-08-06T08:08:08;2.50;;;2.30;;
11771;SDS011;12556;55.748;13.194;2023-08-06T08:10:35;2.90;;;2.30;;
11771;SDS011;12556;55.748;13.194;2023-08-06T08:13:04;3.57;;;2.40;;
11771;SDS011;12556;55.748;13.194;2023-08-06T08:15:32;3.57;;;2.43;;
11771;SDS011;12556;55.748;13.194;2023-08-06T08:18:00;2.90;;;2.40;;
11771;SDS011;12556;55.748;13.194;2023-08-06T08:20:27;5.00;;;2.40;;
11771;SDS011;12556;55.748;13.194;2023-08-06T08:22:58;4.13;;;2.40;;
11771;SDS011;12556;55.748;13.194;2023-08-06T08:25:26;3.90;;;2.63;;
11771;SDS011;12556;55.748;13.194;2023-08-06T08:27:53;5.70;;;2.80;;
11771;SDS011;12556;55.748;13.194;2023-08-06T08:30:21;3.10;;;2.57;;
11771;SDS011;12556;55.748;13.194;2023-08-06T08:32:50;3.83;;;2.43;;
11771;SDS011;12556;55.748;13.194;2023-08-06T08:35:17;2.30;;;2.10;;
11771;SDS011;12556;55.748;13.194;2023-08-06T08:37:44;2.60;;;2.40;;
11771;SDS011;12556;55.748;13.194;2023-08-06T08:40:11;3.63;;;2.63;;
11771;SDS011;12556;55.748;13.194;2023-08-06T08:42:40;2.70;;;2.47;;
11771;SDS011;12556;55.748;13.194;2023-08-06T08:45:10;7.20;;;2.70;;
11771;SDS011;12556;55.748;13.194;2023-08-06T08:47:40;4.73;;;2.37;;
11771;SDS011;12556;55.748;13.194;2023-08-06T08:50:08;4.27;;;2.30;;
11771;SDS011;12556;55.748;13.194;2023-08-06T08:52:36;4.97;;;2.43;;
11771;SDS011;12556;55.748;13.194;2023-08-06T08:55:05;4.47;;;2.50;;
11771;SDS011;12556;55.748;13.194;2023-08-06T08:57:34;4.20;;;2.63;;
11771;SDS011;12556;55.748;13.194;2023-08-06T09:00:01;8.47;;;2.80;;
11771;SDS011;12556;55.748;13.194;2023-08-06T09:02:28;4.30;;;2.73;;
11771;SDS011;12556;55.748;13.194;2023-08-06T09:04:58;4.93;;;2.97;;
11771;SDS011;12556;55.748;13.194;2023-08-06T09:07:28;4.13;;;2.67;;
11771;SDS011;12556;55.748;13.194;2023-08-06T09:09:59;5.17;;;2.77;;
11771;SDS011;12556;55.748;13.194;2023-08-06T09:12:30;3.23;;;2.30;;
11771;SDS011;12556;55.748;13.194;2023-08-06T09:14:57;6.43;;;3.00;;
11771;SDS011;12556;55.748;13.194;2023-08-06T09:17:24;3.70;;;2.87;;
11771;SDS011;12556;55.748;13.194;2023-08-06T09:19:53;3.20;;;2.90;;
11771;SDS011;12556;55.748;13.194;2023-08-06T09:22:21;7.83;;;2.83;;
11771;SDS011;12556;55.748;13.194;2023-08-06T09:24:48;6.43;;;3.37;;
11771;SDS011;12556;55.748;13.194;2023-08-06T09:27:16;4.43;;;2.63;;
11771;SDS011;12556;55.748;13.194;2023-08-06T09:29:43;6.33;;;3.10;;
11771;SDS011;12556;55.748;13.194;2023-08-06T09:32:11;5.03;;;3.23;;
11771;SDS011;12556;55.748;13.194;2023-08-06T09:34:38;7.93;;;3.37;;
11771;SDS011;12556;55.748;13.194;2023-08-06T09:37:07;5.60;;;3.70;;
11771;SDS011;12556;55.748;13.194;2023-08-06T09:39:38;5.10;;;4.20;;
11771;SDS011;12556;55.748;13.194;2023-08-06T09:42:06;5.90;;;4.47;;
11771;SDS011;12556;55.748;13.194;2023-08-06T09:44:33;9.33;;;4.10;;
11771;SDS011;12556;55.748;13.194;2023-08-06T09:47:00;4.70;;;3.87;;
11771;SDS011;12556;55.748;13.194;2023-08-06T09:49:40;7.23;;;3.87;;
11771;SDS011;12556;55.748;13.194;2023-08-06T09:52:08;7.60;;;4.00;;
11771;SDS011;12556;55.748;13.194;2023-08-06T09:54:39;8.27;;;3.83;;
11771;SDS011;12556;55.748;13.194;2023-08-06T09:57:06;5.57;;;4.50;;
11771;SDS011;12556;55.748;13.194;2023-08-06T09:59:33;6.43;;;4.10;;
11771;SDS011;12556;55.748;13.194;2023-08-06T10:02:01;6.03;;;4.30;;
11771;SDS011;12556;55.748;13.194;2023-08-06T10:04:32;5.47;;;4.43;;
11771;SDS011;12556;55.748;13.194;2023-08-06T10:06:59;8.13;;;4.20;;
11771;SDS011;12556;55.748;13.194;2023-08-06T10:09:27;8.67;;;3.73;;
11771;SDS011;12556;55.748;13.194;2023-08-06T10:11:55;5.17;;;3.80;;
11771;SDS011;12556;55.748;13.194;2023-08-06T10:14:24;7.17;;;3.90;;
11771;SDS011;12556;55.748;13.194;2023-08-06T10:16:55;6.33;;;3.30;;
11771;SDS011;12556;55.748;13.194;2023-08-06T10:19:24;5.87;;;4.60;;
11771;SDS011;12556;55.748;13.194;2023-08-06T10:24:48;6.37;;;4.20;;
11771;SDS011;12556;55.748;13.194;2023-08-06T10:27:31;6.70;;;3.90;;
11771;SDS011;12556;55.748;13.194;2023-08-06T10:32:57;5.50;;;3.70;;
11771;SDS011;12556;55.748;13.194;2023-08-06T10:35:28;4.30;;;3.57;;
11771;SDS011;12556;55.748;13.194;2023-08-06T10:38:02;5.57;;;3.67;;
11771;SDS011;12556;55.748;13.194;2023-08-06T10:40:30;7.47;;;3.60;;
11771;SDS011;12556;55.748;13.194;2023-08-06T10:43:00;4.67;;;3.37;;
11771;SDS011;12556;55.748;13.194;2023-08-06T10:45:27;4.50;;;3.37;;
11771;SDS011;12556;55.748;13.194;2023-08-06T10:47:55;3.67;;;2.90;;
11771;SDS011;12556;55.748;13.194;2023-08-06T10:50:23;7.83;;;3.30;;
11771;SDS011;12556;55.748;13.194;2023-08-06T10:52:51;5.70;;;3.30;;
11771;SDS011;12556;55.748;13.194;2023-08-06T10:55:24;6.67;;;3.77;;
11771;SDS011;12556;55.748;13.194;2023-08-06T10:57:52;6.57;;;3.17;;
11771;SDS011;12556;55.748;13.194;2023-08-06T11:00:21;4.87;;;3.07;;
11771;SDS011;12556;55.748;13.194;2023-08-06T11:02:49;4.57;;;3.37;;
11771;SDS011;12556;55.748;13.194;2023-08-06T11:05:18;4.57;;;3.20;;
11771;SDS011;12556;55.748;13.194;2023-08-06T11:07:45;5.60;;;3.20;;
11771;SDS011;12556;55.748;13.194;2023-08-06T11:10:14;6.80;;;3.50;;
11771;SDS011;12556;55.748;13.194;2023-08-06T11:12:41;4.77;;;3.30;;
11771;SDS011;12556;55.748;13.194;2023-08-06T11:15:08;5.27;;;3.47;;
11771;SDS011;12556;55.748;13.194;2023-08-06T11:17:39;4.53;;;3.47;;
11771;SDS011;12556;55.748;13.194;2023-08-06T11:20:07;4.33;;;3.63;;
11771;SDS011;12556;55.748;13.194;2023-08-06T11:22:35;5.03;;;3.33;;
11771;SDS011;12556;55.748;13.194;2023-08-06T11:25:03;3.30;;;2.50;;
11771;SDS011;12556;55.748;13.194;2023-08-06T11:27:30;3.73;;;2.80;;
11771;SDS011;12556;55.748;13.194;2023-08-06T11:29:57;4.43;;;2.73;;
11771;SDS011;12556;55.748;13.194;2023-08-06T11:32:24;3.03;;;2.40;;
11771;SDS011;12556;55.748;13.194;2023-08-06T11:34:53;4.77;;;2.83;;
11771;SDS011;12556;55.748;13.194;2023-08-06T11:37:21;5.43;;;3.57;;
11771;SDS011;12556;55.748;13.194;2023-08-06T11:39:50;5.30;;;2.80;;
11771;SDS011;12556;55.748;13.194;2023-08-06T11:42:17;5.53;;;2.83;;
11771;SDS011;12556;55.748;13.194;2023-08-06T11:44:44;4.47;;;2.73;;
11771;SDS011;12556;55.748;13.194;2023-08-06T11:47:12;4.40;;;2.80;;
11771;SDS011;12556;55.748;13.194;2023-08-06T11:49:41;7.03;;;2.77;;
11771;SDS011;12556;55.748;13.194;2023-08-06T11:52:13;3.33;;;2.90;;
11771;SDS011;12556;55.748;13.194;2023-08-06T11:54:41;5.30;;;3.20;;
11771;SDS011;12556;55.748;13.194;2023-08-06T11:57:08;3.73;;;2.93;;
11771;SDS011;12556;55.748;13.194;2023-08-06T11:59:37;4.03;;;2.60;;
11771;SDS011;12556;55.748;13.194;2023-08-06T12:02:04;3.13;;;2.60;;
11771;SDS011;12556;55.748;13.194;2023-08-06T12:07:31;6.70;;;3.10;;
11771;SDS011;12556;55.748;13.194;2023-08-06T12:09:58;3.50;;;3.03;;
11771;SDS011;12556;55.748;13.194;2023-08-06T12:12:25;7.40;;;3.17;;
11771;SDS011;12556;55.748;13.194;2023-08-06T12:14:53;5.10;;;2.63;;
11771;SDS011;12556;55.748;13.194;2023-08-06T12:17:21;5.47;;;3.20;;
11771;SDS011;12556;55.748;13.194;2023-08-06T12:19:48;6.33;;;2.90;;
11771;SDS011;12556;55.748;13.194;2023-08-06T12:22:15;5.13;;;2.90;;
11771;SDS011;12556;55.748;13.194;2023-08-06T12:24:45;5.70;;;2.80;;
11771;SDS011;12556;55.748;13.194;2023-08-06T12:27:13;4.00;;;2.80;;
11771;SDS011;12556;55.748;13.194;2023-08-06T12:29:43;4.97;;;2.87;;
11771;SDS011;12556;55.748;13.194;2023-08-06T12:32:11;3.80;;;2.70;;
11771;SDS011;12556;55.748;13.194;2023-08-06T12:34:38;3.90;;;2.77;;
11771;SDS011;12556;55.748;13.194;2023-08-06T12:37:06;3.03;;;2.73;;
11771;SDS011;12556;55.748;13.194;2023-08-06T12:39:33;3.30;;;2.70;;
11771;SDS011;12556;55.748;13.194;2023-08-06T12:42:02;6.00;;;3.10;;
11771;SDS011;12556;55.748;13.194;2023-08-06T12:44:30;3.87;;;2.90;;
11771;SDS011;12556;55.748;13.194;2023-08-06T12:46:57;4.67;;;2.90;;
11771;SDS011;12556;55.748;13.194;2023-08-06T12:49:24;3.20;;;2.70;;
11771;SDS011;12556;55.748;13.194;2023-08-06T12:51:53;3.60;;;3.00;;
11771;SDS011;12556;55.748;13.194;2023-08-06T12:54:20;5.30;;;2.93;;
11771;SDS011;12556;55.748;13.194;2023-08-06T12:56:47;3.33;;;2.80;;
11771;SDS011;12556;55.748;13.194;2023-08-06T12:59:17;6.43;;;3.40;;
11771;SDS011;12556;55.748;13.194;2023-08-06T13:01:44;4.10;;;2.73;;
11771;SDS011;12556;55.748;13.194;2023-08-06T13:04:11;3.83;;;3.00;;
11771;SDS011;12556;55.748;13.194;2023-08-06T13:06:38;4.23;;;3.00;;
11771;SDS011;12556;55.748;13.194;2023-08-06T13:09:05;3.87;;;3.23;;
11771;SDS011;12556;55.748;13.194;2023-08-06T13:11:33;5.47;;;3.10;;
11771;SDS011;12556;55.748;13.194;2023-08-06T13:14:03;3.00;;;2.63;;
11771;SDS011;12556;55.748;13.194;2023-08-06T13:16:33;3.30;;;2.97;;
11771;SDS011;12556;55.748;13.194;2023-08-06T13:19:00;5.90;;;3.37;;
11771;SDS011;12556;55.748;13.194;2023-08-06T13:21:31;3.10;;;2.73;;
11771;SDS011;12556;55.748;13.194;2023-08-06T13:23:59;3.03;;;2.63;;
11771;SDS011;12556;55.748;13.194;2023-08-06T13:26:26;3.73;;;2.87;;
11771;SDS011;12556;55.748;13.194;2023-08-06T13:28:53;3.60;;;2.77;;
11771;SDS011;12556;55.748;13.194;2023-08-06T13:31:20;5.13;;;3.10;;
11771;SDS011;12556;55.748;13.194;2023-08-06T13:33:49;4.80;;;3.00;;
11771;SDS011;12556;55.748;13.194;2023-08-06T13:36:16;4.90;;;2.80;;
11771;SDS011;12556;55.748;13.194;2023-08-06T13:38:42;4.53;;;2.90;;
11771;SDS011;12556;55.748;13.194;2023-08-06T13:41:09;4.93;;;2.67;;
11771;SDS011;12556;55.748;13.194;2023-08-06T13:43:36;6.70;;;3.37;;
11771;SDS011;12556;55.748;13.194;2023-08-06T13:46:03;7.67;;;3.13;;
11771;SDS011;12556;55.748;13.194;2023-08-06T13:48:30;3.90;;;2.70;;
11771;SDS011;12556;55.748;13.194;2023-08-06T13:50:58;4.27;;;3.00;;
11771;SDS011;12556;55.748;13.194;2023-08-06T13:53:25;5.93;;;3.20;;
11771;SDS011;12556;55.748;13.194;2023-08-06T13:55:55;4.93;;;3.00;;
11771;SDS011;12556;55.748;13.194;2023-08-06T13:58:22;6.17;;;3.40;;
11771;SDS011;12556;55.748;13.194;2023-08-06T14:00:50;5.87;;;3.07;;
11771;SDS011;12556;55.748;13.194;2023-08-06T14:03:18;3.40;;;2.90;;
11771;SDS011;12556;55.748;13.194;2023-08-06T14:05:45;5.00;;;2.80;;
11771;SDS011;12556;55.748;13.194;2023-08-06T14:08:13;3.20;;;2.87;;
11771;SDS011;12556;55.748;13.194;2023-08-06T14:10:43;3.30;;;2.73;;
11771;SDS011;12556;55.748;13.194;2023-08-06T14:13:10;3.73;;;3.10;;
11771;SDS011;12556;55.748;13.194;2023-08-06T14:15:37;5.53;;;2.57;;
11771;SDS011;12556;55.748;13.194;2023-08-06T14:18:05;4.00;;;2.70;;
11771;SDS011;12556;55.748;13.194;2023-08-06T14:20:33;5.10;;;3.00;;
11771;SDS011;12556;55.748;13.194;2023-08-06T14:23:00;3.63;;;2.73;;
11771;SDS011;12556;55.748;13.194;2023-08-06T14:25:29;5.13;;;2.70;;
11771;SDS011;12556;55.748;13.194;2023-08-06T14:27:55;3.83;;;2.40;;
11771;SDS011;12556;55.748;13.194;2023-08-06T14:30:22;3.40;;;2.53;;
11771;SDS011;12556;55.748;13.194;2023-08-06T14:32:49;3.63;;;2.40;;
11771;SDS011;12556;55.748;13.194;2023-08-06T14:35:16;5.67;;;3.07;;
11771;SDS011;12556;55.748;13.194;2023-08-06T14:37:43;5.63;;;2.80;;
11771;SDS011;12556;55.748;13.194;2023-08-06T14:40:11;6.00;;;3.27;;
11771;SDS011;12556;55.748;13.194;2023-08-06T14:42:39;2.87;;;2.47;;
11771;SDS011;12556;55.748;13.194;2023-08-06T14:45:06;5.03;;;2.60;;